Time;durP1;ratioP1;P1;durP2;ratioP2;P2;SDS_P1;SDS_P2;PMS_P1;PMS_P2;Temp;Humidity;BMP_temperature;BMP_pressure;BME280_temperature;BME280_humidity;BME280_pressure;Samples;Min_cycle;Max_cycle;Signal;HPM_P1;HPM_P2
2021/01/23 00:00:32;;;;;;;4.53;2.97;;;;;;;4.98;100.00;99563.98;1950325;73;26223;-80
2021/01/23 00:03:03;;;;;;;3.63;3.33;;;;;;;5.08;100.00;99560.38;1950289;73;26211;-80
2021/01/23 00:05:36;;;;;;;3.40;3.10;;;;;;;5.00;100.00;99562.34;1950431;73;26142;-80
2021/01/23 00:08:09;;;;;;;3.67;3.37;;;;;;;5.02;100.00;99572.50;1950634;73;26717;-81
2021/01/23 00:10:43;;;;;;;3.00;2.70;;;;;;;4.99;100.00;99579.40;1950163;73;26248;-81
2021/01/23 00:13:14;;;;;;;2.83;2.63;;;;;;;5.02;100.00;99572.50;1949901;73;26156;-80
2021/01/23 00:15:45;;;;;;;2.70;2.50;;;;;;;4.89;100.00;99578.04;1950380;73;26164;-80
2021/01/23 00:18:16;;;;;;;3.30;3.00;;;;;;;4.78;100.00;99569.55;1950205;73;26157;-81
2021/01/23 00:20:48;;;;;;;2.80;2.60;;;;;;;4.87;100.00;99572.56;1950248;73;26143;-81
2021/01/23 00:23:20;;;;;;;2.67;2.23;;;;;;;4.83;100.00;99575.59;1950217;73;26289;-81
2021/01/23 00:25:53;;;;;;;2.67;2.47;;;;;;;4.85;100.00;99577.50;1950299;73;26164;-82
2021/01/23 00:28:27;;;;;;;2.60;2.40;;;;;;;4.73;100.00;99574.23;1950390;73;26164;-82
2021/01/23 00:30:58;;;;;;;2.57;2.37;;;;;;;4.67;100.00;99573.95;1949850;73;26136;-82
2021/01/23 00:33:28;;;;;;;2.40;2.20;;;;;;;4.75;100.00;99577.54;1950245;73;26614;-82
2021/01/23 00:35:58;;;;;;;2.47;2.20;;;;;;;4.82;100.00;99567.89;1949585;73;26151;-81
2021/01/23 00:38:27;;;;;;;2.63;2.43;;;;;;;4.81;100.00;99573.66;1949079;73;26132;-81
2021/01/23 00:40:57;;;;;;;2.87;2.67;;;;;;;4.71;100.00;99570.92;1950121;73;26265;-82
2021/01/23 00:43:27;;;;;;;2.60;2.40;;;;;;;4.61;100.00;99568.20;1950301;73;26216;-81
2021/01/23 00:45:57;;;;;;;4.00;3.10;;;;;;;4.69;100.00;99576.72;1950282;73;26160;-82
2021/01/23 00:48:27;;;;;;;2.60;2.40;;;;;;;4.63;100.00;99570.11;1950217;73;26668;-81
2021/01/23 00:50:57;;;;;;;3.00;2.60;;;;;;;4.55;100.00;99566.00;1950368;73;26295;-81
2021/01/23 00:53:26;;;;;;;4.03;3.17;;;;;;;4.50;100.00;99570.12;1950002;73;26156;-81
2021/01/23 00:55:56;;;;;;;2.60;2.40;;;;;;;4.53;100.00;99564.10;1950214;73;26638;-80
2021/01/23 00:58:26;;;;;;;2.33;2.20;;;;;;;4.52;100.00;99550.91;1949407;73;26155;-81
2021/01/23 01:00:56;;;;;;;2.33;1.93;;;;;;;4.42;100.00;99548.70;1950213;73;26164;-81
2021/01/23 01:03:26;;;;;;;2.07;1.97;;;;;;;4.44;100.00;99539.64;1950301;73;26158;-80
2021/01/23 01:05:56;;;;;;;2.10;1.90;;;;;;;4.45;100.00;99528.92;1950363;73;26160;-81
2021/01/23 01:08:26;;;;;;;2.00;1.80;;;;;;;4.32;100.00;99519.88;1950081;73;26222;-81
2021/01/23 01:10:56;;;;;;;2.70;1.90;;;;;;;4.34;100.00;99527.27;1950269;73;26164;-81
2021/01/23 01:13:26;;;;;;;1.93;1.83;;;;;;;4.31;100.00;99535.53;1950282;73;26168;-81
2021/01/23 01:15:56;;;;;;;2.33;1.90;;;;;;;4.19;100.00;99531.42;1950474;73;26179;-81
2021/01/23 01:18:28;;;;;;;1.50;1.40;;;;;;;4.20;100.00;99527.55;1950528;73;26645;-80
2021/01/23 01:21:00;;;;;;;2.63;1.70;;;;;;;4.12;100.00;99534.43;1948786;73;26144;-81
2021/01/23 01:23:31;;;;;;;2.63;1.90;;;;;;;4.11;100.00;99532.77;1950000;73;26655;-81
2021/01/23 01:26:01;;;;;;;1.70;1.60;;;;;;;4.13;100.00;99536.09;1950473;73;26160;-81
2021/01/23 01:28:31;;;;;;;2.47;2.10;;;;;;;4.10;100.00;99527.85;1950570;73;26153;-81
2021/01/23 01:31:01;;;;;;;2.00;1.90;;;;;;;4.10;100.00;99523.73;1950352;73;26149;-81
2021/01/23 01:33:31;;;;;;;2.37;2.17;;;;;;;4.03;100.00;99527.83;1949718;73;26147;-81
2021/01/23 01:36:01;;;;;;;2.20;2.00;;;;;;;4.12;100.00;99523.44;1950344;73;26646;-81
2021/01/23 01:38:31;;;;;;;2.00;1.90;;;;;;;4.16;100.00;99527.28;1950341;73;26651;-81
2021/01/23 01:41:00;;;;;;;1.70;1.60;;;;;;;4.09;100.00;99534.98;1949557;73;26155;-82
2021/01/23 01:43:30;;;;;;;2.03;1.80;;;;;;;3.96;100.00;99537.73;1950244;73;26239;-81
2021/01/23 01:46:00;;;;;;;2.20;2.00;;;;;;;3.87;100.00;99544.03;1950353;73;26658;-81
2021/01/23 01:48:30;;;;;;;2.47;2.13;;;;;;;3.78;100.00;99551.98;1950208;73;26634;-81
2021/01/23 01:51:00;;;;;;;2.30;2.10;;;;;;;3.82;100.00;99554.47;1950274;73;26642;-82
2021/01/23 01:53:31;;;;;;;2.80;2.60;;;;;;;3.76;100.00;99551.45;1950179;73;26747;-81
2021/01/23 01:56:01;;;;;;;2.77;2.57;;;;;;;3.86;100.00;99560.23;1950201;73;26174;-82
2021/01/23 01:58:31;;;;;;;3.20;2.50;;;;;;;3.79;100.00;99555.02;1949357;73;26148;-82
2021/01/23 02:01:01;;;;;;;3.73;2.43;;;;;;;3.84;100.00;99552.28;1950199;73;26168;-82
2021/01/23 02:03:45;;;;;;;2.93;2.70;;;;;;;3.91;100.00;99542.39;1950350;73;26305;-82
2021/01/23 02:06:22;;;;;;;3.37;2.87;;;;;;;3.79;100.00;99544.03;1950341;73;26160;-82
2021/01/23 02:08:56;;;;;;;3.13;2.87;;;;;;;3.78;100.00;99539.63;1950405;73;26214;-81
2021/01/23 02:11:30;;;;;;;2.87;2.67;;;;;;;3.73;100.00;99544.28;1950188;73;26318;-81
2021/01/23 02:14:08;;;;;;;2.77;2.57;;;;;;;3.59;100.00;99554.98;1950187;73;26337;-82
2021/01/23 02:16:41;;;;;;;3.10;2.80;;;;;;;3.57;100.00;99570.34;1950292;73;26152;-82
2021/01/23 02:19:18;;;;;;;3.30;3.00;;;;;;;3.53;100.00;99582.14;1950222;73;26246;-81
2021/01/23 02:21:58;;;;;;;4.87;3.20;;;;;;;3.54;100.00;99587.38;1950234;73;26212;-82
2021/01/23 02:24:30;;;;;;;3.43;3.03;;;;;;;3.59;100.00;99585.98;1950134;73;26771;-81
2021/01/23 02:27:18;;;;;;;5.47;3.27;;;;;;;3.62;100.00;99585.47;1950269;73;26253;-82
2021/01/23 02:29:59;;;;;;;3.87;3.10;;;;;;;3.72;100.00;99581.92;1950001;73;26587;-81
2021/01/23 02:32:32;;;;;;;2.97;2.77;;;;;;;3.65;100.00;99581.34;1949941;73;26280;-80
2021/01/23 02:35:03;;;;;;;3.67;3.20;;;;;;;3.60;100.00;99582.16;1949972;73;26229;-81
2021/01/23 02:37:34;;;;;;;3.90;3.50;;;;;;;3.61;100.00;99586.55;1950119;73;26297;-81
2021/01/23 02:40:07;;;;;;;5.07;3.57;;;;;;;3.62;100.00;99585.47;1950154;73;26179;-81
2021/01/23 02:42:37;;;;;;;3.57;3.27;;;;;;;3.71;100.00;99578.07;1950213;73;26172;-82
2021/01/23 02:45:09;;;;;;;4.27;3.47;;;;;;;3.77;100.00;99576.97;1950311;73;26284;-81
2021/01/23 02:47:40;;;;;;;4.37;3.60;;;;;;;3.64;100.00;99572.82;1948703;73;26128;-82
2021/01/23 02:50:13;;;;;;;4.70;3.87;;;;;;;3.71;100.00;99573.95;1949157;73;26159;-80
2021/01/23 02:52:49;;;;;;;4.97;3.50;;;;;;;3.64;100.00;99573.65;1950418;73;26172;-80
2021/01/23 02:55:21;;;;;;;3.67;3.33;;;;;;;3.71;100.00;99567.91;1950225;73;26166;-80
2021/01/23 02:57:53;;;;;;;3.90;3.50;;;;;;;3.44;100.00;99572.23;1949939;73;26159;-80
2021/01/23 03:00:25;;;;;;;3.57;3.27;;;;;;;3.38;100.00;99571.92;1949602;73;26566;-81
2021/01/23 03:02:58;;;;;;;4.97;3.83;;;;;;;3.37;100.00;99563.98;1950045;73;26611;-81
2021/01/23 03:05:30;;;;;;;4.50;3.53;;;;;;;3.47;100.00;99573.05;1950132;73;26172;-81
2021/01/23 03:08:00;;;;;;;4.47;3.30;;;;;;;3.45;100.00;99571.69;1950165;73;26242;-82
2021/01/23 03:10:41;;;;;;;5.23;3.40;;;;;;;3.40;100.00;99562.06;1949692;73;26646;-83
2021/01/23 03:13:13;;;;;;;4.10;3.70;;;;;;;3.63;100.00;99565.70;1950215;73;26147;-82
2021/01/23 03:15:44;;;;;;;4.30;3.30;;;;;;;3.53;100.00;99566.50;1950301;73;26164;-82
2021/01/23 03:18:14;;;;;;;5.43;3.73;;;;;;;3.37;100.00;99559.33;1949753;73;26155;-82
2021/01/23 03:20:43;;;;;;;3.60;3.00;;;;;;;3.28;100.00;99555.45;1950227;73;26285;-82
2021/01/23 03:23:13;;;;;;;6.23;4.00;;;;;;;2.95;100.00;99555.86;1950071;73;26265;-80
2021/01/23 03:25:43;;;;;;;3.50;3.00;;;;;;;2.92;100.00;99555.00;1950358;73;26666;-80
2021/01/23 03:28:13;;;;;;;3.40;3.10;;;;;;;2.91;100.00;99550.63;1950380;73;26574;-80
2021/01/23 03:30:43;;;;;;;3.57;3.27;;;;;;;3.07;100.00;99550.44;1950115;73;26156;-80
2021/01/23 03:33:13;;;;;;;4.77;3.00;;;;;;;2.78;100.00;99547.00;1950090;73;26135;-80
2021/01/23 03:35:44;;;;;;;4.17;3.07;;;;;;;2.68;100.00;99550.50;1949812;73;26238;-80
2021/01/23 03:38:14;;;;;;;3.17;2.87;;;;;;;2.41;100.00;99553.34;1950291;73;26722;-80
2021/01/23 03:40:44;;;;;;;3.70;2.90;;;;;;;2.39;100.00;99547.31;1950013;73;26470;-80
2021/01/23 03:43:13;;;;;;;3.53;2.70;;;;;;;2.47;100.00;99552.84;1948351;73;26230;-80
2021/01/23 03:45:43;;;;;;;4.57;3.10;;;;;;;2.37;100.00;99554.13;1948494;73;26301;-80
2021/01/23 03:48:13;;;;;;;4.63;3.13;;;;;;;2.19;100.00;99552.08;1946795;74;26127;-80
2021/01/23 03:50:43;;;;;;;3.37;3.07;;;;;;;2.21;100.00;99550.46;1946870;73;26132;-80
2021/01/23 03:53:13;;;;;;;4.07;3.20;;;;;;;2.04;100.00;99554.71;1946846;73;26140;-79
2021/01/23 03:55:43;;;;;;;3.80;3.20;;;;;;;2.26;100.00;99549.14;1947063;73;26152;-79
2021/01/23 03:58:15;;;;;;;5.60;3.40;;;;;;;2.23;100.00;99547.73;1946890;74;26164;-80
2021/01/23 04:00:45;;;;;;;4.07;3.00;;;;;;;1.90;100.00;99551.29;1946889;74;26207;-80
2021/01/23 04:03:15;;;;;;;5.63;3.20;;;;;;;1.87;100.00;99551.28;1946817;73;26171;-80
2021/01/23 04:05:45;;;;;;;4.43;3.33;;;;;;;1.92;100.00;99550.50;1946884;74;26175;-80
2021/01/23 04:08:15;;;;;;;4.50;3.40;;;;;;;1.96;100.00;99544.24;1946995;74;26215;-80
2021/01/23 04:10:44;;;;;;;4.67;3.20;;;;;;;1.99;100.00;99541.52;1946910;73;26183;-80
2021/01/23 04:13:15;;;;;;;4.53;3.27;;;;;;;1.72;100.00;99550.58;1946866;73;26634;-80
2021/01/23 04:15:45;;;;;;;3.67;3.30;;;;;;;1.79;100.00;99540.27;1946780;74;26182;-79
2021/01/23 04:18:15;;;;;;;5.53;3.50;;;;;;;1.74;100.00;99532.55;1946776;74;26182;-80
2021/01/23 04:20:45;;;;;;;7.83;3.40;;;;;;;2.04;100.00;99537.45;1946975;74;26284;-80
2021/01/23 04:23:15;;;;;;;6.03;3.37;;;;;;;1.83;100.00;99531.81;1946824;74;26670;-80
2021/01/23 04:25:44;;;;;;;5.80;3.37;;;;;;;1.74;100.00;99534.73;1946950;74;26163;-79
2021/01/23 04:28:15;;;;;;;4.67;3.17;;;;;;;1.67;100.00;99533.31;1946979;74;26260;-79
2021/01/23 04:30:45;;;;;;;4.57;3.13;;;;;;;1.68;100.00;99528.92;1946822;73;26602;-80
2021/01/23 04:33:15;;;;;;;6.90;3.50;;;;;;;1.69;100.00;99526.48;1946781;73;26131;-80
2021/01/23 04:35:45;;;;;;;5.37;3.63;;;;;;;1.65;100.00;99519.88;1945204;74;26646;-80
2021/01/23 04:38:15;;;;;;;4.80;3.33;;;;;;;1.73;100.00;99520.77;1946896;74;26560;-80
2021/01/23 04:40:45;;;;;;;4.37;3.80;;;;;;;1.62;100.00;99526.41;1946900;74;26135;-80
2021/01/23 04:43:16;;;;;;;4.90;3.77;;;;;;;1.58;100.00;99523.38;1946928;73;26135;-79
2021/01/23 04:45:45;;;;;;;4.80;4.03;;;;;;;1.60;100.00;99521.73;1948547;73;26147;-80
2021/01/23 04:48:17;;;;;;;6.00;3.90;;;;;;;1.45;100.00;99518.86;1950274;73;26156;-80
2021/01/23 04:50:48;;;;;;;5.53;4.50;;;;;;;1.47;100.00;99518.87;1949995;73;26148;-79
2021/01/23 04:53:18;;;;;;;5.10;4.10;;;;;;;1.57;100.00;99523.08;1950299;73;26164;-80
2021/01/23 04:55:48;;;;;;;6.57;4.40;;;;;;;1.81;100.00;99527.13;1950102;73;26608;-80
2021/01/23 04:58:18;;;;;;;6.17;4.17;;;;;;;1.63;100.00;99534.88;1950075;73;26152;-80
2021/01/23 05:00:48;;;;;;;6.37;4.40;;;;;;;1.53;100.00;99532.89;1937701;73;930550;-79
2021/01/23 05:03:17;;;;;;;5.87;3.97;;;;;;;1.57;100.00;99535.39;1950257;73;26756;-79
2021/01/23 05:05:58;;;;;;;6.40;4.90;;;;;;;1.47;100.00;99539.92;1950118;73;26749;-79
2021/01/23 05:08:36;;;;;;;4.97;4.20;;;;;;;1.43;100.00;99534.69;1949941;73;26640;-79
2021/01/23 05:11:06;;;;;;;9.00;4.60;;;;;;;1.50;100.00;99527.12;1950113;73;26237;-79
2021/01/23 05:13:36;;;;;;;5.83;4.63;;;;;;;1.55;100.00;99531.25;1950351;73;26198;-79
2021/01/23 05:16:12;;;;;;;8.07;4.37;;;;;;;1.48;100.00;99527.91;1947806;73;26225;-81
2021/01/23 05:18:45;;;;;;;6.50;4.30;;;;;;;1.43;100.00;99522.38;1948192;72;26611;-81
2021/01/23 05:21:15;;;;;;;5.97;4.20;;;;;;;1.43;100.00;99534.69;1949117;73;26152;-80
2021/01/23 05:23:45;;;;;;;5.60;4.43;;;;;;;1.29;100.00;99524.69;1949364;73;26291;-80
2021/01/23 05:26:17;;;;;;;6.13;4.60;;;;;;;1.26;100.00;99527.95;1950097;73;26200;-80
2021/01/23 05:28:47;;;;;;;7.17;4.80;;;;;;;1.25;100.00;99524.38;1949620;73;26141;-80
2021/01/23 05:31:19;;;;;;;7.03;4.70;;;;;;;1.08;100.00;99527.73;1950373;73;26631;-80
2021/01/23 05:33:49;;;;;;;6.20;4.43;;;;;;;1.17;100.00;99522.11;1950018;73;26123;-80
2021/01/23 05:36:19;;;;;;;7.73;4.90;;;;;;;1.02;100.00;99523.84;1949267;73;26229;-81
2021/01/23 05:38:49;;;;;;;6.43;4.83;;;;;;;0.93;100.00;99526.73;1949934;73;26555;-81
2021/01/23 05:41:19;;;;;;;7.17;4.70;;;;;;;1.04;100.00;99523.87;1950152;73;26160;-80
2021/01/23 05:43:51;;;;;;;5.47;4.53;;;;;;;1.02;100.00;99525.22;1949989;73;26198;-79
2021/01/23 05:46:23;;;;;;;7.60;4.53;;;;;;;0.90;100.00;99523.42;1950124;73;26245;-79
2021/01/23 05:48:53;;;;;;;6.90;5.17;;;;;;;0.88;100.00;99526.97;1950359;73;26156;-79
2021/01/23 05:51:24;;;;;;;7.83;5.03;;;;;;;0.98;100.00;99516.70;1950207;73;26643;-80
2021/01/23 05:53:54;;;;;;;8.77;5.70;;;;;;;0.84;100.00;99512.16;1950383;73;26203;-80
2021/01/23 05:56:25;;;;;;;7.37;5.60;;;;;;;1.13;100.00;99520.14;1950514;73;26167;-81
2021/01/23 05:58:56;;;;;;;7.27;6.17;;;;;;;1.05;100.00;99517.33;1950313;73;26253;-79
2021/01/23 06:01:26;;;;;;;9.87;6.30;;;;;;;1.30;100.00;99515.41;1950188;73;26230;-80
2021/01/23 06:03:58;;;;;;;9.40;6.07;;;;;;;1.13;100.00;99518.23;1950058;73;26164;-80
2021/01/23 06:06:42;;;;;;;9.40;6.03;;;;;;;1.18;100.00;99514.73;1950236;73;26631;-81
2021/01/23 06:09:31;;;;;;;8.47;5.60;;;;;;;1.28;100.00;99517.59;1950248;73;26187;-81
2021/01/23 06:12:01;;;;;;;8.27;5.70;;;;;;;1.17;100.00;99524.02;1950200;73;26233;-81
2021/01/23 06:14:41;;;;;;;7.43;5.87;;;;;;;0.89;100.00;99523.16;1949972;73;26194;-81
2021/01/23 06:17:13;;;;;;;10.37;6.43;;;;;;;0.88;100.00;99528.33;1950456;73;26156;-81
2021/01/23 06:19:44;;;;;;;10.70;6.93;;;;;;;0.99;100.00;99538.00;1949237;72;26250;-82
2021/01/23 06:22:14;;;;;;;10.67;6.77;;;;;;;0.95;100.00;99539.06;1948587;73;26668;-82
2021/01/23 06:24:55;;;;;;;10.50;6.80;;;;;;;0.95;100.00;99535.50;1950216;73;26193;-81
2021/01/23 06:27:47;;;;;;;9.33;6.93;;;;;;;0.91;100.00;99534.65;1950424;73;26175;-81
2021/01/23 06:30:31;;;;;;;9.63;7.03;;;;;;;1.00;100.00;99533.66;1950360;73;26213;-82
2021/01/23 06:33:02;;;;;;;10.43;7.23;;;;;;;0.97;100.00;99546.48;1949881;73;26211;-81
2021/01/23 06:35:32;;;;;;;9.50;6.90;;;;;;;1.03;100.00;99544.65;1949654;73;26214;-81
2021/01/23 06:38:15;;;;;;;11.23;7.33;;;;;;;1.01;100.00;99539.96;1950325;73;26202;-81
2021/01/23 06:40:45;;;;;;;15.17;7.37;;;;;;;1.01;100.00;99544.06;1950342;73;26191;-81
2021/01/23 06:43:15;;;;;;;9.53;6.87;;;;;;;1.10;100.00;99549.37;1948779;73;26316;-81
2021/01/23 06:45:45;;;;;;;11.73;7.27;;;;;;;1.04;100.00;99547.64;1950295;73;26269;-81
2021/01/23 06:48:15;;;;;;;10.03;6.93;;;;;;;1.04;100.00;99545.73;1950493;73;26237;-82
2021/01/23 06:50:45;;;;;;;10.57;7.07;;;;;;;0.86;100.00;99544.14;1950250;73;26678;-81
2021/01/23 06:53:23;;;;;;;11.73;7.80;;;;;;;0.92;100.00;99539.58;1950384;73;26249;-81
2021/01/23 06:55:55;;;;;;;11.93;7.37;;;;;;;0.89;100.00;99533.27;1949912;73;26151;-81
2021/01/23 06:58:27;;;;;;;11.47;7.50;;;;;;;0.81;100.00;99535.08;1950169;73;26281;-80
2021/01/23 07:00:58;;;;;;;12.57;7.30;;;;;;;0.83;100.00;99525.53;1950211;73;26172;-81
2021/01/23 07:03:30;;;;;;;13.07;7.87;;;;;;;0.84;100.00;99529.92;1949141;73;26241;-82
2021/01/23 07:06:01;;;;;;;11.97;7.20;;;;;;;0.71;100.00;99524.83;1950247;73;26160;-82
2021/01/23 07:08:33;;;;;;;11.50;7.07;;;;;;;0.60;100.00;99531.80;1950233;73;26634;-82
2021/01/23 07:11:11;;;;;;;12.27;7.50;;;;;;;0.58;100.00;99536.13;1950230;73;26231;-81
2021/01/23 07:13:57;;;;;;;13.60;7.77;;;;;;;0.56;100.00;99535.54;1950327;73;26172;-81
2021/01/23 07:16:28;;;;;;;13.00;7.90;;;;;;;0.64;100.00;99536.47;1950150;73;26176;-82
2021/01/23 07:19:00;;;;;;;10.70;7.33;;;;;;;0.65;100.00;99539.50;1950466;73;26663;-83
2021/01/23 07:21:32;;;;;;;10.63;7.17;;;;;;;0.54;100.00;99536.34;1950180;73;26702;-83
2021/01/23 07:24:03;;;;;;;10.33;7.07;;;;;;;0.74;100.00;99539.34;1950114;73;26265;-82
2021/01/23 07:26:33;;;;;;;11.47;7.17;;;;;;;0.69;100.00;99539.81;1950253;73;26719;-82
2021/01/23 07:29:03;;;;;;;12.47;7.47;;;;;;;0.51;100.00;99538.77;1950310;73;26164;-81
2021/01/23 07:31:34;;;;;;;11.00;7.20;;;;;;;0.54;100.00;99547.81;1950174;73;26168;-80
2021/01/23 07:34:11;;;;;;;10.87;7.27;;;;;;;0.52;100.00;99543.13;1950006;73;26157;-81
2021/01/23 07:36:43;;;;;;;11.63;7.67;;;;;;;0.45;100.00;99545.52;1950170;73;26189;-82
2021/01/23 07:39:15;;;;;;;13.23;7.57;;;;;;;0.48;100.00;99549.63;1946158;73;26160;-83
2021/01/23 07:41:50;;;;;;;12.90;7.80;;;;;;;0.54;100.00;99554.64;1950089;73;26759;-84
2021/01/23 07:44:22;;;;;;;11.00;7.70;;;;;;;0.58;100.00;99552.52;1950173;73;26164;-84
2021/01/23 07:46:56;;;;;;;14.17;8.37;;;;;;;0.48;100.00;99552.90;1950227;73;26210;-85
2021/01/23 07:49:28;;;;;;;12.13;7.73;;;;;;;0.49;100.00;99551.30;1950369;73;26717;-84
2021/01/23 07:52:09;;;;;;;11.57;7.90;;;;;;;0.64;100.00;99550.13;1950162;73;26188;-84
2021/01/23 07:54:51;;;;;;;16.33;9.30;;;;;;;0.44;100.00;99553.41;1950190;73;26650;-81
2021/01/23 07:57:21;;;;;;;16.60;9.20;;;;;;;0.38;100.00;99557.16;1949394;73;26143;-82
2021/01/23 07:59:51;;;;;;;14.73;8.67;;;;;;;0.49;100.00;99560.02;1949875;73;26172;-82
2021/01/23 08:02:21;;;;;;;14.57;8.90;;;;;;;0.52;100.00;99565.80;1950456;73;26193;-81
2021/01/23 08:04:53;;;;;;;14.20;8.63;;;;;;;0.52;100.00;99563.08;1950192;73;26127;-77
2021/01/23 08:07:26;;;;;;;14.53;9.20;;;;;;;0.49;100.00;99571.78;1950387;73;26235;-78
2021/01/23 08:10:16;;;;;;;14.97;8.87;;;;;;;0.54;100.00;99564.20;1950237;73;26164;-86
2021/01/23 08:12:57;;;;;;;13.10;8.40;;;;;;;0.49;100.00;99566.31;1950311;73;26592;-83
2021/01/23 08:15:28;;;;;;;13.20;9.17;;;;;;;0.55;100.00;99558.50;1950129;73;26675;-76
2021/01/23 08:18:00;;;;;;;13.47;9.20;;;;;;;0.63;100.00;99559.97;1950292;73;26245;-84
2021/01/23 08:20:35;;;;;;;14.33;9.23;;;;;;;0.53;100.00;99559.80;1950450;73;26137;-82
2021/01/23 08:23:07;;;;;;;16.77;9.00;;;;;;;0.64;100.00;99565.16;1950447;73;26187;-85
2021/01/23 08:25:40;;;;;;;15.27;9.43;;;;;;;0.63;100.00;99567.63;1950253;73;26148;-79
2021/01/23 08:28:10;;;;;;;18.03;10.07;;;;;;;0.57;100.00;99565.89;1950380;73;26169;-83
2021/01/23 08:30:40;;;;;;;17.63;10.10;;;;;;;0.89;100.00;99575.09;1950173;73;26604;-81
2021/01/23 08:33:12;;;;;;;15.37;10.33;;;;;;;0.78;100.00;99572.45;1950396;73;26168;-82
2021/01/23 08:35:43;;;;;;;18.07;9.87;;;;;;;0.64;100.00;99572.55;1950573;73;26168;-84
2021/01/23 08:38:16;;;;;;;15.03;10.07;;;;;;;0.71;100.00;99569.92;1950705;73;26711;-86
2021/01/23 08:40:46;;;;;;;17.97;10.07;;;;;;;0.99;100.00;99566.17;1949623;73;26599;-81
2021/01/23 08:43:16;;;;;;;20.50;10.90;;;;;;;1.05;100.00;99568.44;1948676;73;26269;-84
2021/01/23 08:45:46;;;;;;;21.07;11.57;;;;;;;1.23;100.00;99562.12;1950401;73;26207;-81
2021/01/23 08:48:16;;;;;;;19.60;11.00;;;;;;;1.17;100.00;99560.92;1950331;73;26659;-80
2021/01/23 08:50:46;;;;;;;22.23;11.60;;;;;;;1.16;100.00;99555.16;1950373;73;26375;-85
2021/01/23 08:53:16;;;;;;;25.03;11.70;;;;;;;1.09;100.00;99556.74;1950722;73;26655;-82
2021/01/23 08:55:46;;;;;;;25.60;13.47;;;;;;;1.19;100.00;99556.05;1950991;73;26183;-85
2021/01/23 08:58:16;;;;;;;22.40;11.93;;;;;;;1.14;100.00;99555.44;1950228;73;26261;-83
2021/01/23 09:00:46;;;;;;;33.20;13.13;;;;;;;1.35;100.00;99557.33;1950515;73;26753;-82
2021/01/23 09:03:16;;;;;;;21.13;12.33;;;;;;;1.06;100.00;99550.96;1948765;73;26135;-84
2021/01/23 09:05:46;;;;;;;22.40;12.13;;;;;;;1.16;100.00;99557.90;1950339;73;26140;-84
2021/01/23 09:08:16;;;;;;;22.17;10.83;;;;;;;1.13;100.00;99556.52;1949855;73;26572;-84
2021/01/23 09:10:47;;;;;;;24.97;12.13;;;;;;;1.14;100.00;99552.70;1950627;73;26193;-83
2021/01/23 09:13:17;;;;;;;23.50;12.30;;;;;;;1.06;100.00;99554.52;1950265;73;26248;-83
2021/01/23 09:15:46;;;;;;;19.87;11.57;;;;;;;1.09;100.00;99555.91;1950342;73;26211;-82
2021/01/23 09:18:16;;;;;;;21.97;12.20;;;;;;;1.18;100.00;99557.12;1950201;73;26677;-81
2021/01/23 09:20:46;;;;;;;21.23;12.07;;;;;;;1.11;100.00;99561.97;1950413;73;26176;-83
2021/01/23 09:23:16;;;;;;;24.47;12.03;;;;;;;0.83;100.00;99566.53;1950272;73;26932;-84
2021/01/23 09:25:46;;;;;;;17.33;11.30;;;;;;;0.86;100.00;99572.84;1950502;73;26164;-80
2021/01/23 09:28:16;;;;;;;24.73;11.43;;;;;;;1.03;100.00;99572.78;1950266;73;26238;-82
2021/01/23 09:30:47;;;;;;;28.70;11.40;;;;;;;0.84;100.00;99581.02;1949884;73;26144;-81
2021/01/23 09:33:17;;;;;;;26.30;12.27;;;;;;;0.81;100.00;99587.00;1950372;73;26799;-85
2021/01/23 09:35:47;;;;;;;17.57;11.17;;;;;;;0.58;100.00;99579.84;1948784;73;26610;-84
2021/01/23 09:38:17;;;;;;;24.53;13.00;;;;;;;0.84;100.00;99581.86;1950356;73;26175;-83
2021/01/23 09:40:47;;;;;;;18.43;11.23;;;;;;;1.02;100.00;99590.83;1950384;73;26208;-81
2021/01/23 09:43:18;;;;;;;21.93;12.20;;;;;;;0.98;100.00;99601.45;1948231;73;26184;-84
2021/01/23 09:45:50;;;;;;;21.20;11.50;;;;;;;0.95;100.00;99602.47;1949919;73;26206;-84
2021/01/23 09:48:21;;;;;;;16.33;10.90;;;;;;;1.05;100.00;99608.08;1950410;73;26229;-84
2021/01/23 09:50:51;;;;;;;19.83;12.20;;;;;;;0.97;100.00;99609.36;1950509;73;26211;-83
2021/01/23 09:53:21;;;;;;;20.10;11.87;;;;;;;1.10;100.00;99608.16;1950493;73;26235;-83
2021/01/23 09:55:51;;;;;;;18.93;12.53;;;;;;;0.75;100.00;99607.95;1950357;73;26160;-82
2021/01/23 09:58:21;;;;;;;21.83;13.27;;;;;;;0.66;100.00;99610.00;1950480;73;26171;-82
2021/01/23 10:00:50;;;;;;;23.23;12.30;;;;;;;0.74;100.00;99621.86;1950182;73;26147;-81
2021/01/23 10:03:20;;;;;;;21.90;12.97;;;;;;;0.65;100.00;99621.46;1950518;73;26149;-83
2021/01/23 10:05:50;;;;;;;20.10;12.33;;;;;;;0.66;100.00;99627.76;1950629;73;26149;-85
2021/01/23 10:08:20;;;;;;;28.30;13.23;;;;;;;0.51;100.00;99628.91;1950410;73;26201;-83
2021/01/23 10:10:50;;;;;;;29.87;13.37;;;;;;;0.66;100.00;99631.32;1950318;73;26152;-82
2021/01/23 10:13:20;;;;;;;25.70;14.90;;;;;;;0.71;100.00;99640.97;1950231;73;26169;-83
2021/01/23 10:15:50;;;;;;;27.13;15.33;;;;;;;0.74;100.00;99626.80;1950381;73;26250;-83
2021/01/23 10:18:21;;;;;;;26.50;15.47;;;;;;;0.90;100.00;99634.13;1950366;73;26635;-79
2021/01/23 10:20:51;;;;;;;28.23;15.73;;;;;;;1.08;100.00;99640.38;1950807;73;26149;-82
2021/01/23 10:23:21;;;;;;;25.40;15.03;;;;;;;1.17;100.00;99634.76;1949451;73;26659;-83
2021/01/23 10:25:51;;;;;;;29.97;15.83;;;;;;;1.15;100.00;99637.77;1950309;73;26161;-83
2021/01/23 10:28:21;;;;;;;27.03;15.17;;;;;;;1.27;100.00;99642.56;1950272;73;26620;-81
2021/01/23 10:30:51;;;;;;;31.83;17.63;;;;;;;1.47;100.00;99646.62;1950349;73;26616;-80
2021/01/23 10:33:21;;;;;;;33.20;18.13;;;;;;;1.42;100.00;99646.02;1949785;73;26218;-81
2021/01/23 10:35:51;;;;;;;30.33;18.13;;;;;;;1.35;100.00;99654.97;1950119;73;26147;-77
2021/01/23 10:38:21;;;;;;;28.77;16.67;;;;;;;1.28;100.00;99659.81;1950280;73;26188;-79
2021/01/23 10:40:51;;;;;;;33.23;18.03;;;;;;;1.39;100.00;99654.74;1950431;73;26631;-82
2021/01/23 10:43:21;;;;;;;34.30;18.70;;;;;;;1.33;100.00;99657.95;1950477;73;26249;-80
2021/01/23 10:45:51;;;;;;;28.17;16.50;;;;;;;1.52;100.00;99651.63;1950419;73;26258;-80
2021/01/23 10:48:21;;;;;;;31.60;18.03;;;;;;;1.88;100.00;99637.81;1949992;73;26140;-80
2021/01/23 10:50:51;;;;;;;29.37;15.23;;;;;;;2.09;100.00;99637.46;1950253;73;26278;-81
2021/01/23 10:53:21;;;;;;;26.53;15.20;;;;;;;2.05;100.00;99642.63;1950112;73;26144;-80
2021/01/23 10:55:50;;;;;;;23.57;14.63;;;;;;;2.17;100.00;99641.09;1950219;73;26607;-80
2021/01/23 10:58:20;;;;;;;24.77;14.20;;;;;;;2.21;100.00;99646.33;1950318;73;26140;-80
2021/01/23 11:00:50;;;;;;;26.67;15.30;;;;;;;2.52;100.00;99640.58;1949925;73;26124;-80
2021/01/23 11:03:20;;;;;;;25.57;16.37;;;;;;;2.47;100.00;99648.75;1950511;73;26157;-80
2021/01/23 11:05:51;;;;;;;25.27;15.73;;;;;;;2.43;100.00;99646.25;1950216;73;26160;-81
2021/01/23 11:08:22;;;;;;;22.47;15.40;;;;;;;2.40;100.00;99646.75;1949141;73;26600;-80
2021/01/23 11:10:51;;;;;;;21.27;14.77;;;;;;;2.73;100.00;99650.06;1950240;73;26681;-81
2021/01/23 11:13:21;;;;;;;22.63;15.07;;;;;;;2.88;100.00;99648.49;1950188;73;26615;-80
2021/01/23 11:15:51;;;;;;;25.67;14.13;;;;;;;2.93;100.00;99657.59;1950235;73;26619;-80
2021/01/23 11:18:21;;;;;;;26.53;14.83;;;;;;;2.79;100.00;99644.05;1950360;73;26147;-81
2021/01/23 11:20:51;;;;;;;28.30;16.20;;;;;;;2.83;100.00;99647.08;1950346;73;26709;-80
2021/01/23 11:23:21;;;;;;;25.90;15.83;;;;;;;2.99;100.00;99646.11;1950190;73;26658;-81
2021/01/23 11:25:51;;;;;;;22.70;14.67;;;;;;;3.04;100.00;99652.44;1950271;73;26237;-81
2021/01/23 11:28:21;;;;;;;20.10;13.97;;;;;;;3.27;100.00;99654.48;1950212;73;26219;-80
2021/01/23 11:30:53;;;;;;;20.13;12.83;;;;;;;3.30;100.00;99652.56;1950271;73;26241;-80
2021/01/23 11:33:23;;;;;;;19.80;12.63;;;;;;;3.31;100.00;99658.34;1949760;73;26144;-80
2021/01/23 11:35:55;;;;;;;19.23;13.23;;;;;;;3.44;100.00;99663.35;1950442;73;26157;-81
2021/01/23 11:38:27;;;;;;;22.43;12.70;;;;;;;3.34;100.00;99660.58;1949958;73;26191;-79
2021/01/23 11:40:59;;;;;;;20.17;12.73;;;;;;;3.61;100.00;99659.31;1950024;73;26630;-82
2021/01/23 11:43:30;;;;;;;21.63;13.83;;;;;;;3.52;100.00;99656.80;1949804;73;26145;-81
2021/01/23 11:46:03;;;;;;;21.30;13.93;;;;;;;3.45;100.00;99663.09;1950473;73;26230;-83